createdAt,value
2022-10-04T00:01:48.347Z,13.07
2022-10-04T00:04:30.865Z,13.05
2022-10-04T00:07:04.341Z,13.07
2022-10-04T00:09:49.143Z,13.03
2022-10-04T00:12:25.542Z,13.02
2022-10-04T00:14:58.993Z,13.06
2022-10-04T00:17:34.290Z,13.13
2022-10-04T00:20:07.597Z,13.08
2022-10-04T00:22:37.936Z,13.00
2022-10-04T00:25:13.108Z,13.00
2022-10-04T00:27:46.893Z,13.07
2022-10-04T00:30:23.545Z,13.08
2022-10-04T00:33:05.048Z,13.05
2022-10-04T00:35:38.682Z,13.06
2022-10-04T00:38:21.012Z,12.97
2022-10-04T00:40:58.719Z,13.00
2022-10-04T00:43:44.641Z,13.01
2022-10-04T00:46:21.068Z,12.96
2022-10-04T00:48:54.711Z,12.98
2022-10-04T00:51:28.125Z,12.98
2022-10-04T00:54:25.842Z,12.96
2022-10-04T00:57:05.146Z,12.94
2022-10-04T00:59:41.240Z,12.94
2022-10-04T01:02:30.146Z,12.96
2022-10-04T01:05:06.659Z,12.88
2022-10-04T01:07:49.126Z,12.94
2022-10-04T01:10:22.579Z,12.94
2022-10-04T01:12:55.974Z,12.95
2022-10-04T01:15:38.625Z,12.86
2022-10-04T01:18:18.050Z,12.84
2022-10-04T01:20:52.968Z,12.74
2022-10-04T01:23:37.861Z,12.68
2022-10-04T01:26:11.359Z,12.69
2022-10-04T01:28:45.007Z,12.62
2022-10-04T01:31:16.978Z,12.54
2022-10-04T01:33:48.007Z,12.54
2022-10-04T01:36:18.660Z,12.54
2022-10-04T01:38:49.703Z,12.56
2022-10-04T01:41:24.053Z,12.56
2022-10-04T01:43:57.770Z,12.60
2022-10-04T01:46:31.203Z,12.55
2022-10-04T01:49:09.713Z,12.46
2022-10-04T01:51:53.367Z,12.53
2022-10-04T01:54:32.572Z,12.58
2022-10-04T01:57:08.779Z,12.65
2022-10-04T01:59:44.985Z,12.68
2022-10-04T02:02:36.856Z,12.62
2022-10-04T02:05:10.360Z,12.48
2022-10-04T02:07:42.686Z,12.43
2022-10-04T02:10:16.126Z,12.46
2022-10-04T02:12:52.950Z,12.38
2022-10-04T02:15:28.301Z,12.32
2022-10-04T02:18:00.239Z,12.34
2022-10-04T02:20:30.881Z,12.34
2022-10-04T02:23:03.775Z,12.35
2022-10-04T02:25:35.765Z,12.38
2022-10-04T02:28:08.594Z,12.45
2022-10-04T02:30:41.529Z,12.42
2022-10-04T02:33:12.543Z,12.42
2022-10-04T02:35:48.253Z,12.42
2022-10-04T02:38:27.874Z,12.36
2022-10-04T02:41:20.622Z,12.30
2022-10-04T02:43:56.798Z,12.29
2022-10-04T02:46:30.280Z,12.36
2022-10-04T02:49:04.170Z,12.21
2022-10-04T02:51:40.637Z,12.10
2022-10-04T02:54:25.029Z,12.00
2022-10-04T02:56:57.899Z,11.93
2022-10-04T02:59:34.610Z,11.87
2022-10-04T03:02:03.416Z,11.84
2022-10-04T03:04:37.277Z,11.79
2022-10-04T03:07:09.291Z,11.80
2022-10-04T03:09:41.221Z,11.76
2022-10-04T03:12:13.682Z,11.70
2022-10-04T03:14:45.482Z,11.67
2022-10-04T03:17:17.615Z,11.66
2022-10-04T03:19:50.293Z,11.60
2022-10-04T03:22:20.919Z,11.55
2022-10-04T03:24:54.723Z,11.57
2022-10-04T03:27:30.833Z,11.51
2022-10-04T03:30:02.014Z,11.46
2022-10-04T03:32:33.030Z,11.48
2022-10-04T03:35:07.540Z,11.40
2022-10-04T03:37:39.273Z,11.40
2022-10-04T03:40:13.130Z,11.42
2022-10-04T03:42:47.276Z,11.35
2022-10-04T03:45:20.669Z,11.37
2022-10-04T03:47:53.226Z,11.31
2022-10-04T03:50:26.508Z,11.26
2022-10-04T03:53:00.116Z,11.25
2022-10-04T03:55:36.643Z,11.29
2022-10-04T03:58:08.312Z,11.36
2022-10-04T04:00:47.625Z,11.36
2022-10-04T04:03:21.253Z,11.38
2022-10-04T04:05:54.978Z,11.50
2022-10-04T04:08:36.706Z,11.56
2022-10-04T04:11:11.293Z,11.58
2022-10-04T04:13:51.987Z,11.64
2022-10-04T04:16:28.355Z,11.68
2022-10-04T04:19:02.309Z,11.63
2022-10-04T04:21:33.861Z,11.77
2022-10-04T04:24:09.103Z,11.56
2022-10-04T04:26:48.485Z,11.54
2022-10-04T04:29:34.155Z,11.40
2022-10-04T04:32:24.723Z,11.39
2022-10-04T04:35:10.222Z,11.33
2022-10-04T04:37:40.576Z,11.37
2022-10-04T04:40:22.601Z,11.31
2022-10-04T04:42:53.939Z,11.26
2022-10-04T04:45:28.438Z,11.26
2022-10-04T04:48:01.235Z,11.23
2022-10-04T04:50:34.367Z,11.18
2022-10-04T04:53:19.115Z,11.21
2022-10-04T04:56:11.040Z,11.25
2022-10-04T04:58:33.114Z,11.30
2022-10-04T05:01:09.202Z,11.25
2022-10-04T05:03:39.988Z,11.24
2022-10-04T05:06:28.245Z,11.23
2022-10-04T05:08:58.711Z,11.16
2022-10-04T05:11:38.493Z,11.16
2022-10-04T05:14:13.366Z,11.16
2022-10-04T05:16:49.636Z,11.24
2022-10-04T05:19:30.537Z,11.32
2022-10-04T05:22:15.529Z,11.46
2022-10-04T05:24:48.638Z,11.46
2022-10-04T05:27:38.879Z,11.55
2022-10-04T05:30:33.525Z,11.65
2022-10-04T05:33:09.499Z,11.72
2022-10-04T05:35:48.460Z,11.74
2022-10-04T05:38:22.460Z,11.86
2022-10-04T05:41:21.705Z,11.88
2022-10-04T05:43:52.849Z,12.02
2022-10-04T05:46:26.438Z,12.02
2022-10-04T05:49:08.922Z,12.04
2022-10-04T05:51:59.118Z,12.10
2022-10-04T05:54:32.808Z,12.24
2022-10-04T05:57:21.133Z,12.16
2022-10-04T06:00:12.906Z,12.21
2022-10-04T06:03:12.438Z,12.26
2022-10-04T06:05:57.656Z,12.24
2022-10-04T06:08:55.726Z,12.17
2022-10-04T06:11:47.512Z,12.16
2022-10-04T06:14:38.864Z,12.28
2022-10-04T06:17:39.414Z,12.13
2022-10-04T06:20:12.928Z,12.17
2022-10-04T06:22:48.868Z,12.25
2022-10-04T06:25:28.761Z,12.26
2022-10-04T06:28:20.398Z,12.40
2022-10-04T06:30:54.108Z,12.52
2022-10-04T06:33:45.749Z,12.53
2022-10-04T06:36:31.087Z,12.66
2022-10-04T06:39:24.091Z,12.74
2022-10-04T06:42:32.565Z,12.72
2022-10-04T06:45:29.008Z,12.63
2022-10-04T06:48:03.233Z,12.70
2022-10-04T06:50:51.767Z,12.80
2022-10-04T06:53:28.245Z,12.66
2022-10-04T06:56:07.717Z,12.65
2022-10-04T06:58:43.826Z,12.69
2022-10-04T07:01:35.364Z,12.82
2022-10-04T07:04:50.199Z,12.78
2022-10-04T07:07:30.802Z,12.73
2022-10-04T07:10:16.666Z,12.78
2022-10-04T07:12:50.248Z,12.86
2022-10-04T07:15:26.926Z,13.02
2022-10-04T07:18:00.608Z,13.05
2022-10-04T07:20:34.114Z,13.14
2022-10-04T07:23:07.946Z,13.22
2022-10-04T07:25:47.027Z,13.36
2022-10-04T07:28:38.400Z,13.22
2022-10-04T07:31:25.812Z,13.17
2022-10-04T07:34:02.659Z,13.18
2022-10-04T07:36:42.086Z,13.24
2022-10-04T07:39:24.894Z,13.25
2022-10-04T07:42:15.233Z,13.20
2022-10-04T07:44:48.836Z,13.07
2022-10-04T07:47:27.860Z,13.04
2022-10-04T07:49:58.613Z,13.04
2022-10-04T07:52:50.750Z,13.12
2022-10-04T07:55:42.830Z,13.18
2022-10-04T07:58:25.230Z,13.33
2022-10-04T08:01:01.657Z,13.30
2022-10-04T08:03:56.126Z,13.46
2022-10-04T08:06:35.366Z,13.36
2022-10-04T08:09:24.404Z,13.34
2022-10-04T08:12:14.385Z,13.30
2022-10-04T08:14:59.797Z,13.40
2022-10-04T08:17:36.296Z,13.62
2022-10-04T08:20:27.659Z,13.94
2022-10-04T08:23:16.197Z,14.06
2022-10-04T08:25:55.310Z,14.08
2022-10-04T08:28:58.402Z,14.05
2022-10-04T08:31:48.338Z,14.15
2022-10-04T08:34:21.784Z,14.12
2022-10-04T08:36:59.791Z,14.08
2022-10-04T08:39:48.198Z,14.06
2022-10-04T08:42:55.545Z,14.38
2022-10-04T08:45:54.692Z,14.70
2022-10-04T08:48:34.481Z,15.15
2022-10-04T08:51:38.204Z,15.30
2022-10-04T08:54:36.074Z,15.40
2022-10-04T08:57:26.057Z,15.20
2022-10-04T09:00:15.619Z,15.24
2022-10-04T09:02:54.991Z,15.00
2022-10-04T09:06:00.316Z,14.92
2022-10-04T09:08:58.777Z,15.43
2022-10-04T09:11:44.535Z,15.56
2022-10-04T09:14:30.771Z,15.88
2022-10-04T09:17:22.250Z,16.17
2022-10-04T09:20:37.188Z,15.88
2022-10-04T09:23:06.253Z,15.85
2022-10-04T09:25:45.820Z,15.87
2022-10-04T09:28:39.097Z,15.98
2022-10-04T09:31:21.903Z,16.10
2022-10-04T09:34:12.286Z,15.94
2022-10-04T09:36:54.711Z,15.86
2022-10-04T09:39:48.822Z,15.78
2022-10-04T09:42:47.969Z,15.45
2022-10-04T09:45:25.228Z,15.42
2022-10-04T09:48:16.430Z,15.78
2022-10-04T09:51:11.018Z,15.74
2022-10-04T09:53:53.301Z,15.58
2022-10-04T09:56:54.155Z,16.10
2022-10-04T09:59:45.761Z,16.45
2022-10-04T10:02:20.170Z,16.46
2022-10-04T10:05:05.532Z,16.46
2022-10-04T10:07:44.922Z,16.28
2022-10-04T10:10:56.972Z,16.06
2022-10-04T10:13:45.518Z,16.19
2022-10-04T10:16:21.918Z,16.76
2022-10-04T10:19:17.908Z,16.97
2022-10-04T10:22:05.818Z,16.97
2022-10-04T10:24:43.816Z,17.00
2022-10-04T10:27:39.954Z,16.90
2022-10-04T10:30:25.835Z,16.56
2022-10-04T10:33:20.518Z,16.83
2022-10-04T10:36:19.768Z,16.94
2022-10-04T10:39:23.780Z,17.08
2022-10-04T10:42:13.722Z,16.64
2022-10-04T10:44:59.131Z,16.89
2022-10-04T10:47:52.348Z,16.86
2022-10-04T10:50:59.792Z,16.82
2022-10-04T10:53:50.014Z,16.94
2022-10-04T10:56:46.343Z,16.99
2022-10-04T10:59:55.062Z,17.15
2022-10-04T11:02:49.429Z,17.41
2022-10-04T11:05:41.568Z,17.73
2022-10-04T11:08:30.553Z,17.24
2022-10-04T11:11:22.498Z,17.52
2022-10-04T11:14:12.412Z,17.08
2022-10-04T11:16:57.870Z,17.33
2022-10-04T11:19:53.800Z,16.98
2022-10-04T11:23:02.221Z,17.24
2022-10-04T11:25:50.613Z,16.82
2022-10-04T11:28:52.957Z,16.48
2022-10-04T11:31:58.176Z,16.50
2022-10-04T11:35:06.865Z,16.74
2022-10-04T11:37:53.618Z,17.74
2022-10-04T11:40:56.724Z,18.29
2022-10-04T11:43:46.534Z,18.35
2022-10-04T11:46:41.389Z,17.92
2022-10-04T11:49:36.297Z,16.88
2022-10-04T11:52:18.230Z,16.64
2022-10-04T11:55:21.174Z,16.79
2022-10-04T11:58:19.076Z,16.73
2022-10-04T12:01:10.740Z,16.71
2022-10-04T12:04:03.191Z,17.00
2022-10-04T12:07:10.345Z,17.80
2022-10-04T12:09:46.569Z,18.42
2022-10-04T12:12:49.850Z,18.56
2022-10-04T12:15:40.874Z,18.94
2022-10-04T12:18:35.720Z,18.08
2022-10-04T12:21:30.310Z,18.01
2022-10-04T12:24:22.003Z,17.88
2022-10-04T12:27:12.136Z,17.85
2022-10-04T12:30:02.867Z,17.89
2022-10-04T12:33:08.504Z,18.66
2022-10-04T12:35:47.973Z,18.50
2022-10-04T12:38:37.895Z,18.64
2022-10-04T12:41:30.780Z,18.76
2022-10-04T12:44:33.235Z,18.72
2022-10-04T12:47:35.743Z,18.25
2022-10-04T12:50:09.463Z,18.71
2022-10-04T12:52:57.789Z,18.70
2022-10-04T12:55:49.566Z,18.52
2022-10-04T12:58:55.887Z,18.26
2022-10-04T13:01:40.380Z,18.36
2022-10-04T13:04:29.200Z,18.48
2022-10-04T13:07:18.455Z,18.40
2022-10-04T13:10:25.078Z,17.98
2022-10-04T13:13:20.015Z,17.94
2022-10-04T13:19:09.793Z,17.72
2022-10-04T13:21:46.062Z,17.86
2022-10-04T13:24:31.959Z,18.09
2022-10-04T13:27:08.255Z,17.62
2022-10-04T13:29:56.222Z,17.22
2022-10-04T13:32:32.332Z,17.05
2022-10-04T13:35:08.862Z,16.82
2022-10-04T13:38:03.206Z,16.89
2022-10-04T13:40:54.592Z,17.18
2022-10-04T13:43:36.819Z,17.29
2022-10-04T13:46:19.923Z,17.42
2022-10-04T13:49:07.030Z,17.46
2022-10-04T13:51:46.866Z,17.13
2022-10-04T13:54:53.378Z,17.32
2022-10-04T13:57:32.461Z,17.11
2022-10-04T14:00:14.111Z,17.14
2022-10-04T14:02:59.499Z,17.38
2022-10-04T14:05:49.692Z,17.28
2022-10-04T14:08:39.740Z,17.14
2022-10-04T14:11:41.770Z,17.12
2022-10-04T14:14:30.409Z,17.10
2022-10-04T14:17:15.625Z,17.12
2022-10-04T14:19:53.562Z,17.16
2022-10-04T14:22:33.315Z,17.10
2022-10-04T14:25:30.934Z,17.00
2022-10-04T14:28:38.006Z,17.06
2022-10-04T14:31:37.169Z,16.87
2022-10-04T14:34:44.200Z,16.90
2022-10-04T14:37:45.076Z,16.82
2022-10-04T14:40:36.590Z,16.84
2022-10-04T14:43:15.537Z,16.88
2022-10-04T14:45:54.615Z,16.84
2022-10-04T14:48:57.068Z,16.84
2022-10-04T14:51:39.494Z,16.74
2022-10-04T14:54:19.985Z,16.81
2022-10-04T14:57:12.822Z,16.90
2022-10-04T15:00:06.857Z,16.78
2022-10-04T15:03:05.456Z,16.74
2022-10-04T15:05:44.310Z,16.73
2022-10-04T15:08:26.792Z,16.65
2022-10-04T15:11:06.038Z,16.76
2022-10-04T15:13:56.735Z,16.66
2022-10-04T15:16:47.579Z,16.84
2022-10-04T15:19:47.350Z,16.74
2022-10-04T15:22:27.398Z,16.79
2022-10-04T15:24:59.445Z,16.78
2022-10-04T15:27:35.671Z,16.72
2022-10-04T15:30:24.390Z,16.61
2022-10-04T15:33:11.530Z,16.72
2022-10-04T15:36:00.096Z,16.60
2022-10-04T15:38:42.152Z,16.62
2022-10-04T15:41:40.054Z,16.55
2022-10-04T15:44:15.201Z,16.61
2022-10-04T15:47:10.035Z,16.51
2022-10-04T15:49:52.569Z,16.57
2022-10-04T15:52:59.232Z,16.51
2022-10-04T15:55:33.888Z,16.51
2022-10-04T15:58:22.143Z,16.44
2022-10-04T16:00:58.536Z,16.24
2022-10-04T16:03:45.051Z,16.20
2022-10-04T16:06:30.901Z,16.12
2022-10-04T16:09:16.260Z,15.99
2022-10-04T16:12:01.439Z,15.94
2022-10-04T16:14:42.012Z,15.84
2022-10-04T16:17:24.653Z,15.84
2022-10-04T16:19:59.866Z,15.71
2022-10-04T16:22:32.932Z,15.72
2022-10-04T16:25:21.773Z,15.61
2022-10-04T16:28:05.576Z,15.52
2022-10-04T16:30:50.180Z,15.48
2022-10-04T16:33:33.138Z,15.38
2022-10-04T16:36:07.291Z,15.31
2022-10-04T16:39:07.730Z,15.20
2022-10-04T16:41:44.494Z,15.14
2022-10-04T16:44:37.714Z,15.08
2022-10-04T16:47:20.183Z,15.02
2022-10-04T16:49:57.139Z,14.95
2022-10-04T16:52:53.267Z,14.83
2022-10-04T16:55:29.393Z,14.73
2022-10-04T16:58:30.580Z,14.66
2022-10-04T17:01:34.001Z,14.68
2022-10-04T17:04:26.457Z,14.60
2022-10-04T17:07:02.777Z,14.72
2022-10-04T17:09:58.900Z,14.64
2022-10-04T17:12:48.738Z,14.63
2022-10-04T17:15:28.469Z,14.64
2022-10-04T17:18:06.199Z,14.54
2022-10-04T17:20:45.853Z,14.46
2022-10-04T17:23:21.945Z,14.54
2022-10-04T17:26:10.422Z,14.48
2022-10-04T17:29:00.978Z,14.52
2022-10-04T17:31:34.487Z,14.50
2022-10-04T17:34:20.561Z,14.50
2022-10-04T17:36:54.961Z,14.51
2022-10-04T17:39:28.501Z,14.46
2022-10-04T17:42:20.151Z,14.36
2022-10-04T17:45:12.870Z,14.24
2022-10-04T17:48:10.293Z,14.20
2022-10-04T17:51:18.476Z,14.12
2022-10-04T17:54:10.736Z,14.09
2022-10-04T17:56:44.585Z,14.03
2022-10-04T17:59:30.859Z,14.02
2022-10-04T18:02:13.984Z,13.94
2022-10-04T18:04:50.395Z,13.96
2022-10-04T18:07:26.891Z,14.02
2022-10-04T18:10:00.315Z,13.98
2022-10-04T18:12:36.404Z,13.94
2022-10-04T18:15:39.739Z,13.89
2022-10-04T18:18:21.611Z,13.91
2022-10-04T18:21:02.387Z,13.89
2022-10-04T18:23:36.151Z,13.90
2022-10-04T18:26:18.520Z,13.90
2022-10-04T18:28:52.410Z,13.85
2022-10-04T18:31:35.120Z,13.80
2022-10-04T18:34:17.770Z,13.76
2022-10-04T18:37:05.814Z,13.76
2022-10-04T18:39:51.728Z,13.74
2022-10-04T18:42:23.412Z,13.64
2022-10-04T18:45:06.117Z,13.62
2022-10-04T18:47:41.327Z,13.69
2022-10-04T18:50:31.965Z,13.65
2022-10-04T18:53:06.996Z,13.66
2022-10-04T18:55:55.362Z,13.61
2022-10-04T18:59:14.367Z,13.52
2022-10-04T19:02:04.631Z,13.50
2022-10-04T19:04:45.626Z,13.51
2022-10-04T19:07:28.347Z,13.45
2022-10-04T19:10:13.837Z,13.54
2022-10-04T19:13:05.444Z,13.44
2022-10-04T19:15:44.164Z,13.40
2022-10-04T19:18:29.865Z,13.34
2022-10-04T19:21:03.320Z,13.31
2022-10-04T19:23:42.592Z,13.28
2022-10-04T19:26:32.233Z,13.23
2022-10-04T19:29:05.881Z,13.28
2022-10-04T19:31:42.520Z,13.21
2022-10-04T19:34:19.579Z,13.18
2022-10-04T19:36:55.739Z,13.30
2022-10-04T19:39:35.151Z,13.18
2022-10-04T19:42:17.199Z,13.20
2022-10-04T19:44:59.376Z,13.20
2022-10-04T19:47:44.738Z,13.24
2022-10-04T19:50:33.396Z,13.16
2022-10-04T19:53:10.144Z,13.05
2022-10-04T19:55:56.053Z,13.10
2022-10-04T19:58:47.031Z,13.02
2022-10-04T20:01:23.919Z,12.92
2022-10-04T20:04:12.422Z,12.92
2022-10-04T20:06:54.707Z,12.82
2022-10-04T20:09:41.733Z,12.85
2022-10-04T20:12:44.957Z,12.82
2022-10-04T20:15:27.729Z,12.84
2022-10-04T20:17:58.051Z,12.76
2022-10-04T20:20:43.768Z,12.87
2022-10-04T20:23:17.277Z,12.73
2022-10-04T20:25:50.686Z,12.70
2022-10-04T20:28:32.951Z,12.64
2022-10-04T20:31:06.666Z,12.65
2022-10-04T20:33:48.893Z,12.64
2022-10-04T20:36:31.327Z,12.58
2022-10-04T20:39:03.638Z,12.62
2022-10-04T20:41:55.071Z,12.54
2022-10-04T20:44:43.563Z,12.58
2022-10-04T20:47:29.071Z,12.50
2022-10-04T20:50:01.559Z,12.46
2022-10-04T20:52:34.538Z,12.47
2022-10-04T20:55:12.147Z,12.46
2022-10-04T20:57:42.477Z,12.42
2022-10-04T21:00:20.969Z,12.42
2022-10-04T21:02:51.466Z,12.36
2022-10-04T21:05:27.200Z,12.38
2022-10-04T21:08:25.117Z,12.38
2022-10-04T21:11:18.489Z,12.32
2022-10-04T21:13:52.045Z,12.40
2022-10-04T21:16:36.781Z,12.34
2022-10-04T21:19:36.268Z,12.32
2022-10-04T21:22:18.841Z,12.28
2022-10-04T21:24:57.809Z,12.27
2022-10-04T21:27:33.846Z,12.32
2022-10-04T21:30:15.431Z,12.36
2022-10-04T21:32:46.395Z,12.33
2022-10-04T21:35:16.778Z,12.40
2022-10-04T21:37:47.429Z,12.36
2022-10-04T21:40:17.856Z,12.34
2022-10-04T21:42:48.235Z,12.43
2022-10-04T21:45:18.608Z,12.36
2022-10-04T21:47:48.940Z,12.31
2022-10-04T21:50:19.341Z,12.28
2022-10-04T21:52:49.738Z,12.30
2022-10-04T21:55:20.107Z,12.24
2022-10-04T21:57:50.431Z,12.30
2022-10-04T22:00:21.224Z,12.29
2022-10-04T22:02:51.703Z,12.26
2022-10-04T22:05:22.130Z,12.28
2022-10-04T22:07:52.506Z,12.34
2022-10-04T22:10:23.017Z,12.24
2022-10-04T22:12:55.117Z,12.27
2022-10-04T22:15:27.047Z,12.26
2022-10-04T22:17:58.001Z,12.40
2022-10-04T22:20:29.077Z,12.20
2022-10-04T22:23:00.053Z,12.16
2022-10-04T22:25:30.450Z,12.14
2022-10-04T22:28:01.224Z,12.24
2022-10-04T22:30:31.745Z,12.16
2022-10-04T22:33:02.760Z,12.10
2022-10-04T22:35:34.701Z,12.28
2022-10-04T22:38:08.224Z,12.16
2022-10-04T22:40:38.720Z,12.08
2022-10-04T22:43:12.142Z,12.09
2022-10-04T22:45:44.249Z,12.03
2022-10-04T22:48:16.245Z,12.04
2022-10-04T22:50:46.743Z,12.04
2022-10-04T22:53:22.641Z,12.01
2022-10-04T22:55:55.226Z,12.00
2022-10-04T22:58:27.562Z,11.99
2022-10-04T23:00:58.056Z,12.04
2022-10-04T23:03:31.531Z,12.04
2022-10-04T23:06:03.869Z,11.98
2022-10-04T23:08:34.302Z,11.96
2022-10-04T23:11:04.856Z,12.14
2022-10-04T23:13:35.514Z,11.95
2022-10-04T23:16:20.842Z,11.97
2022-10-04T23:18:53.371Z,11.95
2022-10-04T23:21:26.892Z,11.88
2022-10-04T23:24:00.344Z,11.85
2022-10-04T23:26:33.701Z,11.84
2022-10-04T23:29:09.753Z,11.78
2022-10-04T23:31:40.189Z,11.74
2022-10-04T23:34:19.862Z,11.72
2022-10-04T23:36:50.532Z,11.82
2022-10-04T23:39:33.685Z,11.72
2022-10-04T23:42:07.161Z,11.66
2022-10-04T23:44:38.873Z,11.65
2022-10-04T23:47:20.311Z,11.64
2022-10-04T23:49:53.116Z,11.61
2022-10-04T23:52:26.806Z,11.72
2022-10-04T23:54:57.196Z,11.64
2022-10-04T23:57:30.999Z,11.64
